Time;durP1;ratioP1;P1;durP2;ratioP2;P2;SDS_P1;SDS_P2;PMS_P1;PMS_P2;Temp;Humidity;BMP_temperature;BMP_pressure;BME280_temperature;BME280_humidity;BME280_pressure;Samples;Min_cycle;Max_cycle;Signal;HPM_P1;HPM_P2
2021/12/22 03:45:44;;;;;;;25.70;12.07;;;-0.90;97.00;;;;;;5555226;24;20354;-81
2021/12/22 03:48:10;;;;;;;22.50;11.07;;;-0.80;96.80;;;;;;4819571;29;20039;-81
2021/12/22 03:50:35;;;;;;;24.02;11.55;;;-0.80;96.60;;;;;;4802706;29;20338;-79
2021/12/22 03:53:01;;;;;;;35.10;13.65;;;-0.80;96.60;;;;;;4821128;29;20034;-79
2021/12/22 03:55:28;;;;;;;25.20;11.30;;;-0.80;96.90;;;;;;4834865;29;20364;-80
2021/12/22 03:57:53;;;;;;;26.23;11.95;;;-0.80;96.80;;;;;;4804712;29;20051;-79
2021/12/22 04:00:20;;;;;;;25.65;11.63;;;-0.80;96.90;;;;;;4799705;29;20079;-80
2021/12/22 04:02:46;;;;;;;24.92;11.57;;;-0.70;96.80;;;;;;4797876;29;20034;-80
2021/12/22 04:05:12;;;;;;;29.30;11.48;;;-0.70;96.70;;;;;;4819773;29;20095;-79
2021/12/22 04:07:38;;;;;;;26.50;12.27;;;-0.70;96.70;;;;;;4835103;29;20061;-79
2021/12/22 04:10:19;;;;;;;31.45;10.82;;;-0.60;96.70;;;;;;4823741;29;20120;-79
2021/12/22 04:12:49;;;;;;;37.15;11.88;;;-0.60;96.50;;;;;;4822042;29;20053;-79
2021/12/22 04:15:14;;;;;;;22.15;10.80;;;-0.60;96.40;;;;;;4819491;29;20042;-79
2021/12/22 04:17:40;;;;;;;23.08;11.52;;;-0.60;96.40;;;;;;4816624;29;20045;-80
2021/12/22 04:20:06;;;;;;;23.67;10.63;;;-0.60;96.30;;;;;;4824074;29;20038;-79
2021/12/22 04:22:32;;;;;;;24.20;9.87;;;-0.60;96.40;;;;;;4806728;29;20041;-79
2021/12/22 04:24:58;;;;;;;22.23;10.73;;;-0.60;96.30;;;;;;4834733;29;20026;-80
2021/12/22 04:27:24;;;;;;;24.25;11.73;;;-0.60;96.40;;;;;;4816526;29;20030;-79
2021/12/22 04:29:49;;;;;;;24.45;11.75;;;-0.60;96.30;;;;;;4812852;29;20117;-79
2021/12/22 04:32:15;;;;;;;23.42;12.63;;;-0.60;96.50;;;;;;4841170;29;20065;-80
2021/12/22 04:34:41;;;;;;;25.13;12.35;;;-0.60;96.20;;;;;;4824226;29;20042;-79
2021/12/22 04:37:07;;;;;;;23.30;12.38;;;-0.60;96.30;;;;;;4804297;29;20334;-79
2021/12/22 04:39:33;;;;;;;23.35;12.57;;;-0.50;96.30;;;;;;4831478;29;20247;-80
2021/12/22 04:42:00;;;;;;;28.48;11.80;;;-0.60;96.30;;;;;;4833032;29;20041;-79
2021/12/22 04:44:26;;;;;;;25.40;11.57;;;-0.50;96.30;;;;;;4834329;29;20042;-79
2021/12/22 04:46:52;;;;;;;27.15;11.77;;;-0.50;96.30;;;;;;4804039;29;20141;-80
2021/12/22 04:49:17;;;;;;;26.98;11.52;;;-0.50;96.30;;;;;;4819361;29;20053;-80
2021/12/22 04:51:50;;;;;;;26.08;12.75;;;-0.50;96.20;;;;;;4818763;29;20062;-80
2021/12/22 04:54:17;;;;;;;26.50;12.68;;;-0.50;96.20;;;;;;4805095;29;20061;-79
2021/12/22 04:56:43;;;;;;;22.90;12.13;;;-0.50;96.10;;;;;;4818871;29;20038;-80
2021/12/22 04:59:10;;;;;;;21.13;12.00;;;-0.50;96.10;;;;;;4834303;29;20069;-80
2021/12/22 05:01:36;;;;;;;25.13;12.27;;;-0.50;96.10;;;;;;4818968;29;20050;-80
2021/12/22 05:04:01;;;;;;;22.10;12.02;;;-0.50;96.20;;;;;;4832469;29;20279;-80
2021/12/22 05:06:27;;;;;;;30.20;14.18;;;-0.50;96.30;;;;;;4805954;29;20045;-80
2021/12/22 05:08:53;;;;;;;23.92;12.40;;;-0.60;96.40;;;;;;4844393;29;20365;-79
2021/12/22 05:11:19;;;;;;;31.25;12.30;;;-0.50;96.30;;;;;;4821624;29;20076;-80
2021/12/22 05:13:45;;;;;;;28.33;12.23;;;-0.60;96.30;;;;;;4828923;29;20034;-80
2021/12/22 05:16:17;;;;;;;26.65;13.50;;;-0.60;96.20;;;;;;4803826;29;20229;-80
2021/12/22 05:18:51;;;;;;;36.92;14.30;;;-0.60;96.20;;;;;;4816144;29;20049;-80
2021/12/22 05:21:21;;;;;;;23.55;12.27;;;-0.60;96.20;;;;;;4806259;29;20074;-80
2021/12/22 05:23:51;;;;;;;21.58;12.73;;;-0.60;96.30;;;;;;4833027;29;20054;-80
2021/12/22 05:26:18;;;;;;;26.60;12.98;;;-0.60;96.50;;;;;;4814423;29;20043;-80
2021/12/22 05:28:44;;;;;;;28.90;13.73;;;-0.60;96.50;;;;;;4803357;29;20317;-80
2021/12/22 05:31:09;;;;;;;29.42;14.18;;;-0.50;96.50;;;;;;4788502;29;20042;-79
2021/12/22 05:33:35;;;;;;;28.08;12.88;;;-0.50;96.40;;;;;;4822869;29;20046;-79
2021/12/22 05:36:01;;;;;;;29.83;14.30;;;-0.50;96.20;;;;;;4824324;29;20226;-80
2021/12/22 05:38:27;;;;;;;33.55;14.05;;;-0.60;96.10;;;;;;4823420;29;20046;-80
2021/12/22 05:40:52;;;;;;;28.83;13.15;;;-0.60;95.90;;;;;;4803407;29;20103;-79
2021/12/22 05:43:18;;;;;;;28.25;13.65;;;-0.60;96.00;;;;;;4816963;29;20056;-80
2021/12/22 05:45:44;;;;;;;25.75;12.98;;;-0.70;96.30;;;;;;4816408;29;20252;-79
2021/12/22 05:48:10;;;;;;;27.30;13.00;;;-0.70;96.20;;;;;;4821434;29;20329;-80
2021/12/22 05:50:36;;;;;;;32.58;14.35;;;-0.70;96.10;;;;;;4801412;29;20231;-80
2021/12/22 05:53:02;;;;;;;28.43;13.27;;;-0.70;96.00;;;;;;4839239;29;20041;-80
2021/12/22 05:55:28;;;;;;;25.52;13.35;;;-0.70;95.90;;;;;;4834824;29;20046;-80
2021/12/22 05:57:54;;;;;;;25.45;13.20;;;-0.70;96.00;;;;;;4815455;29;20038;-80
2021/12/22 06:00:22;;;;;;;28.33;12.68;;;-0.80;95.80;;;;;;4818107;29;20057;-80
2021/12/22 06:02:48;;;;;;;29.33;13.85;;;-0.80;95.60;;;;;;4818654;29;20272;-80
2021/12/22 06:05:14;;;;;;;27.42;13.70;;;-0.80;95.50;;;;;;4824260;29;20037;-79
2021/12/22 06:07:39;;;;;;;27.40;14.13;;;-0.90;95.50;;;;;;4818190;29;20034;-80
2021/12/22 06:10:06;;;;;;;30.10;13.75;;;-1.00;95.50;;;;;;4813146;29;20066;-80
2021/12/22 06:12:32;;;;;;;;;;;-1.10;95.90;;;;;;4826166;29;20050;-80
2021/12/22 06:14:58;;;;;;;35.50;14.33;;;-1.10;96.20;;;;;;4830069;29;20021;-80
2021/12/22 06:17:23;;;;;;;25.08;13.57;;;-1.10;96.20;;;;;;4797220;29;20038;-80
2021/12/22 06:19:49;;;;;;;33.03;13.27;;;-1.10;96.00;;;;;;4803866;29;20215;-80
2021/12/22 06:22:17;;;;;;;30.15;14.55;;;-1.20;95.70;;;;;;4816238;29;20041;-80
2021/12/22 06:24:42;;;;;;;32.25;14.15;;;-1.20;95.60;;;;;;4809260;29;20203;-80
2021/12/22 06:27:08;;;;;;;27.25;13.80;;;-1.30;95.70;;;;;;4791607;29;20089;-80
2021/12/22 06:29:34;;;;;;;31.77;15.25;;;-1.40;95.50;;;;;;4785382;29;20294;-80
2021/12/22 06:32:00;;;;;;;33.10;16.42;;;-1.40;95.50;;;;;;4825811;29;20222;-80
2021/12/22 06:34:25;;;;;;;32.03;14.63;;;-1.40;96.10;;;;;;4840711;29;20045;-80
2021/12/22 06:36:51;;;;;;;37.83;16.70;;;-1.40;96.70;;;;;;4828611;29;20117;-80
2021/12/22 06:39:18;;;;;;;29.87;16.73;;;-1.40;96.60;;;;;;4811635;29;20086;-80
2021/12/22 06:41:46;;;;;;;32.42;14.82;;;-1.40;96.70;;;;;;4840975;29;20038;-80
2021/12/22 06:44:14;;;;;;;41.40;15.82;;;-1.40;96.60;;;;;;4827297;29;20046;-80
2021/12/22 06:46:41;;;;;;;35.47;15.52;;;-1.30;96.60;;;;;;4815798;29;20050;-80
2021/12/22 06:49:08;;;;;;;31.88;15.45;;;-1.30;96.40;;;;;;4818148;29;20105;-81
2021/12/22 06:51:33;;;;;;;36.38;15.25;;;-1.40;96.20;;;;;;4830994;29;20054;-81
2021/12/22 06:53:59;;;;;;;31.23;15.32;;;-1.30;96.10;;;;;;4800189;29;20035;-81
2021/12/22 06:56:25;;;;;;;37.85;16.02;;;-1.40;96.00;;;;;;4813492;29;20061;-81
2021/12/22 06:58:51;;;;;;;31.60;15.77;;;-1.40;96.30;;;;;;4815417;29;20035;-80
2021/12/22 07:01:19;;;;;;;32.97;16.85;;;-1.40;96.30;;;;;;4803082;29;20353;-80
2021/12/22 07:03:46;;;;;;;44.40;18.00;;;-1.40;96.10;;;;;;4816062;29;20045;-80
2021/12/22 07:06:12;;;;;;;44.75;16.98;;;-1.40;96.90;;;;;;4816400;29;20026;-80
2021/12/22 07:08:38;;;;;;;37.58;14.45;;;-1.30;96.90;;;;;;4833124;29;20090;-80
2021/12/22 07:11:04;;;;;;;36.55;15.85;;;-1.30;97.30;;;;;;4837041;29;20229;-80
2021/12/22 07:13:31;;;;;;;26.75;14.18;;;-1.20;97.20;;;;;;4834336;29;20030;-80
2021/12/22 07:15:57;;;;;;;33.58;15.27;;;-1.10;97.00;;;;;;4818664;29;20353;-80
2021/12/22 07:18:23;;;;;;;32.35;16.00;;;-1.00;97.10;;;;;;4807132;29;20038;-80
2021/12/22 07:20:49;;;;;;;34.28;16.95;;;-1.00;97.10;;;;;;4826134;29;20386;-80
2021/12/22 07:23:15;;;;;;;32.38;15.07;;;-0.90;97.00;;;;;;4838318;29;20041;-80
2021/12/22 07:25:41;;;;;;;25.67;14.90;;;-0.90;97.00;;;;;;4834685;29;20156;-80
2021/12/22 07:28:10;;;;;;;33.55;15.00;;;-0.80;97.10;;;;;;4790862;29;20030;-81
2021/12/22 07:30:37;;;;;;;28.00;15.00;;;-0.80;97.00;;;;;;4815875;29;20057;-80
2021/12/22 07:33:03;;;;;;;32.30;14.90;;;-0.70;97.00;;;;;;4787986;29;20035;-80
2021/12/22 07:35:30;;;;;;;32.05;16.13;;;-0.60;96.90;;;;;;4822009;29;20046;-80
2021/12/22 07:38:32;;;;;;;31.50;14.40;;;-0.60;96.80;;;;;;4824524;29;20041;-80
2021/12/22 07:40:59;;;;;;;49.42;16.38;;;-0.50;96.70;;;;;;4807691;29;20327;-80
2021/12/22 07:43:26;;;;;;;28.88;15.80;;;-0.40;96.60;;;;;;4805098;29;20035;-80
2021/12/22 07:45:52;;;;;;;39.63;15.55;;;-0.30;96.50;;;;;;4818923;29;20041;-80
2021/12/22 07:48:19;;;;;;;33.10;16.25;;;-0.30;96.50;;;;;;4837637;29;20074;-80
2021/12/22 07:50:44;;;;;;;33.10;15.30;;;-0.20;96.40;;;;;;4820018;29;20457;-80
2021/12/22 07:53:10;;;;;;;31.48;15.85;;;-0.10;96.30;;;;;;4813838;29;20284;-80
2021/12/22 07:55:36;;;;;;;28.13;14.77;;;-0.10;96.10;;;;;;4789620;29;20058;-80
2021/12/22 07:58:02;;;;;;;31.75;16.42;;;0.10;95.90;;;;;;4819476;29;20038;-80
2021/12/22 08:00:28;;;;;;;33.92;16.08;;;0.20;95.80;;;;;;4836360;29;20210;-81
2021/12/22 08:02:55;;;;;;;37.90;17.27;;;0.20;95.60;;;;;;4817124;29;20031;-80
2021/12/22 08:05:21;;;;;;;30.77;15.98;;;0.30;95.40;;;;;;4817632;29;20103;-80
2021/12/22 08:07:47;;;;;;;33.67;15.63;;;0.40;95.20;;;;;;4793676;29;20368;-81
2021/12/22 08:10:13;;;;;;;32.13;16.40;;;0.50;95.20;;;;;;4803103;29;20034;-81
2021/12/22 08:12:39;;;;;;;36.22;15.43;;;0.50;95.10;;;;;;4787468;29;20038;-81
2021/12/22 08:15:05;;;;;;;35.00;16.35;;;0.60;94.80;;;;;;4795272;29;20049;-80
2021/12/22 08:17:32;;;;;;;36.92;15.40;;;0.70;94.90;;;;;;4820793;29;20226;-80
2021/12/22 08:19:59;;;;;;;35.50;16.23;;;0.70;94.60;;;;;;4824911;29;20053;-80
2021/12/22 08:22:25;;;;;;;;;;;0.80;94.50;;;;;;4818782;29;20034;-81
2021/12/22 08:24:51;;;;;;;31.80;16.10;;;0.80;94.30;;;;;;4831843;29;19923;-80
2021/12/22 08:27:18;;;;;;;36.90;17.30;;;0.90;94.20;;;;;;4819842;29;20340;-81
2021/12/22 08:29:44;;;;;;;37.20;17.13;;;0.90;94.00;;;;;;4837697;29;20037;-81
2021/12/22 08:32:11;;;;;;;35.63;17.38;;;1.00;93.90;;;;;;4808309;29;20109;-81
2021/12/22 08:34:40;;;;;;;31.83;17.02;;;1.00;93.80;;;;;;4821051;29;20098;-80
2021/12/22 08:39:53;;;;;;;35.50;17.73;;;1.00;93.60;;;;;;4834981;29;20237;-80
2021/12/22 08:42:19;;;;;;;40.00;18.05;;;1.10;93.70;;;;;;4821393;29;20046;-79
2021/12/22 08:44:45;;;;;;;;;;;1.20;93.50;;;;;;4837657;29;20099;-80
2021/12/22 08:47:12;;;;;;;37.10;20.03;;;1.40;93.00;;;;;;4816858;29;19917;-80
2021/12/22 08:49:37;;;;;;;32.38;17.10;;;1.40;92.90;;;;;;4810824;29;20048;-80
2021/12/22 08:52:04;;;;;;;33.70;18.63;;;1.40;93.10;;;;;;4798826;29;20310;-80
2021/12/22 08:54:30;;;;;;;42.28;22.58;;;1.60;92.80;;;;;;4805587;29;20035;-80
2021/12/22 08:56:56;;;;;;;42.25;19.98;;;1.70;92.20;;;;;;4820332;29;20073;-80
2021/12/22 08:59:23;;;;;;;38.00;19.27;;;1.70;92.10;;;;;;4824312;29;20202;-80
2021/12/22 09:01:51;;;;;;;33.45;18.15;;;1.70;91.30;;;;;;4821406;29;20042;-80
2021/12/22 09:04:19;;;;;;;35.25;18.90;;;1.70;92.00;;;;;;4820573;29;20043;-80
2021/12/22 09:06:45;;;;;;;33.70;17.08;;;1.80;91.80;;;;;;4817837;29;20039;-80
2021/12/22 09:09:11;;;;;;;38.88;18.77;;;1.90;91.70;;;;;;4802269;29;20137;-80
2021/12/22 09:11:37;;;;;;;36.97;18.80;;;2.00;91.20;;;;;;4813681;29;20054;-80
2021/12/22 09:14:05;;;;;;;38.15;17.85;;;2.00;91.40;;;;;;4830169;29;20097;-80
2021/12/22 09:16:33;;;;;;;37.60;18.60;;;2.10;91.20;;;;;;4828739;29;20045;-80
2021/12/22 09:19:00;;;;;;;33.83;17.60;;;2.10;91.00;;;;;;4833630;29;20061;-80
2021/12/22 09:21:26;;;;;;;36.38;18.15;;;2.30;91.20;;;;;;4830671;29;20075;-80
2021/12/22 09:23:52;;;;;;;35.55;18.65;;;2.40;91.00;;;;;;4813576;29;20038;-80
2021/12/22 09:26:18;;;;;;;38.20;18.95;;;2.40;90.50;;;;;;4818001;29;20034;-81
2021/12/22 09:28:44;;;;;;;31.90;17.75;;;2.40;90.60;;;;;;4816119;29;20042;-80
2021/12/22 09:31:11;;;;;;;34.57;18.40;;;2.50;90.90;;;;;;4812305;29;20049;-80
2021/12/22 09:33:38;;;;;;;40.88;18.58;;;2.60;91.00;;;;;;4816542;29;20030;-79
2021/12/22 09:36:07;;;;;;;33.03;18.85;;;2.70;90.80;;;;;;4823167;29;20065;-80
2021/12/22 09:38:32;;;;;;;39.35;18.45;;;2.70;90.00;;;;;;4819607;29;20391;-80
2021/12/22 09:41:00;;;;;;;36.25;18.80;;;2.70;89.90;;;;;;4814301;29;20051;-80
2021/12/22 09:43:27;;;;;;;40.83;20.25;;;2.60;89.90;;;;;;4808083;29;20215;-80
2021/12/22 09:45:58;;;;;;;47.25;20.80;;;2.60;90.20;;;;;;4816149;29;20034;-81
2021/12/22 09:52:15;;;;;;;39.55;19.30;;;2.70;90.20;;;;;;4830337;29;20329;-81
2021/12/22 09:53:43;;;;;;;38.25;20.10;;;2.70;89.80;;;;;;4815351;29;20395;-81
2021/12/22 09:56:14;;;;;;;44.55;19.50;;;2.70;90.10;;;;;;4816035;29;20437;-81
2021/12/22 09:58:42;;;;;;;46.53;19.50;;;2.80;89.80;;;;;;4833727;29;20042;-81
2021/12/22 10:01:09;;;;;;;37.58;20.60;;;2.80;89.40;;;;;;4822098;29;20346;-80
2021/12/22 10:03:35;;;;;;;35.58;19.23;;;2.90;89.90;;;;;;4826925;29;20034;-83
2021/12/22 10:06:01;;;;;;;40.95;20.27;;;2.80;88.30;;;;;;4833262;29;20314;-81
2021/12/22 10:08:29;;;;;;;39.13;20.00;;;2.80;87.70;;;;;;4828010;29;20116;-81
2021/12/22 10:11:10;;;;;;;40.50;21.03;;;2.90;88.50;;;;;;4824273;29;20087;-81
2021/12/22 10:13:37;;;;;;;36.40;19.23;;;3.00;88.50;;;;;;4831455;29;20366;-82
2021/12/22 10:16:13;;;;;;;35.25;19.65;;;3.10;89.00;;;;;;4815238;29;20275;-82
2021/12/22 10:18:38;;;;;;;35.20;19.77;;;3.30;87.70;;;;;;4813515;29;20031;-81
2021/12/22 10:21:21;;;;;;;40.90;19.75;;;3.20;86.40;;;;;;4792408;29;20088;-81
2021/12/22 10:23:50;;;;;;;47.92;20.42;;;3.20;87.10;;;;;;4836797;29;20034;-80
2021/12/22 10:26:19;;;;;;;37.42;20.00;;;3.20;86.50;;;;;;4830827;29;20042;-80
2021/12/22 10:28:54;;;;;;;46.67;21.83;;;3.20;87.40;;;;;;4826932;29;20042;-80
2021/12/22 10:31:25;;;;;;;45.70;22.85;;;3.20;88.00;;;;;;4831919;29;20244;-80
2021/12/22 10:33:51;;;;;;;44.80;23.27;;;3.20;88.00;;;;;;4829239;29;20289;-81
2021/12/22 10:36:21;;;;;;;42.45;22.67;;;3.30;87.90;;;;;;4817586;29;20042;-81
2021/12/22 10:38:50;;;;;;;44.20;22.92;;;3.30;88.00;;;;;;4809298;29;20041;-80
2021/12/22 10:41:19;;;;;;;48.38;24.35;;;3.40;87.30;;;;;;4814125;29;20038;-80
2021/12/22 10:43:48;;;;;;;47.75;24.23;;;3.30;87.80;;;;;;4831385;29;21136;-80
2021/12/22 10:46:27;;;;;;;43.35;22.83;;;3.40;88.50;;;;;;4810052;29;20061;-80
2021/12/22 10:49:17;;;;;;;40.58;22.73;;;3.50;88.10;;;;;;4828250;29;20042;-80
2021/12/22 10:51:46;;;;;;;47.30;23.40;;;3.50;87.70;;;;;;4816338;29;20030;-80
2021/12/22 10:54:15;;;;;;;42.28;23.45;;;3.50;87.30;;;;;;4837528;29;20038;-80
2021/12/22 10:56:46;;;;;;;44.42;22.83;;;3.50;87.00;;;;;;4830489;29;20263;-80
2021/12/22 10:59:18;;;;;;;42.05;21.42;;;3.40;87.30;;;;;;4824032;29;20027;-80
2021/12/22 11:01:53;;;;;;;47.72;23.45;;;3.30;87.00;;;;;;4821556;29;20248;-80
2021/12/22 11:04:24;;;;;;;45.58;23.45;;;3.10;88.00;;;;;;4826175;29;20038;-80
2021/12/22 11:06:53;;;;;;;45.45;22.95;;;2.90;88.50;;;;;;4824909;29;20042;-79
2021/12/22 11:09:22;;;;;;;45.13;24.40;;;2.80;89.80;;;;;;4839112;29;20029;-81
2021/12/22 11:11:57;;;;;;;46.53;24.00;;;2.80;90.10;;;;;;4823442;29;20046;-81
2021/12/22 11:14:26;;;;;;;52.58;23.60;;;2.80;90.10;;;;;;4822012;29;20087;-80
2021/12/22 11:17:05;;;;;;;44.33;23.48;;;2.90;90.10;;;;;;4819948;29;20084;-80
2021/12/22 11:19:36;;;;;;;47.75;23.33;;;2.90;90.30;;;;;;4821161;29;20109;-80
2021/12/22 11:22:09;;;;;;;49.55;23.75;;;2.90;90.10;;;;;;4831308;29;20063;-80
2021/12/22 11:24:43;;;;;;;43.70;24.35;;;2.90;90.30;;;;;;4836200;29;20204;-80
2021/12/22 11:27:11;;;;;;;45.45;23.17;;;2.80;90.40;;;;;;4817541;29;20083;-79
2021/12/22 11:29:41;;;;;;;50.45;25.45;;;2.70;90.40;;;;;;4835964;29;20091;-80
2021/12/22 11:32:08;;;;;;;59.45;24.88;;;2.60;90.50;;;;;;4818864;29;20278;-80
2021/12/22 11:34:36;;;;;;;56.97;25.70;;;2.60;90.60;;;;;;4809640;29;20117;-80
2021/12/22 11:37:04;;;;;;;49.35;25.33;;;2.70;90.80;;;;;;4836691;29;20034;-81
2021/12/22 11:39:31;;;;;;;41.55;22.60;;;2.80;90.70;;;;;;4818619;29;20049;-81
2021/12/22 11:41:59;;;;;;;45.75;24.60;;;2.90;90.40;;;;;;4835667;29;20044;-81
2021/12/22 11:44:29;;;;;;;48.00;25.17;;;2.80;90.40;;;;;;4818578;29;20076;-81
2021/12/22 11:46:57;;;;;;;45.22;23.50;;;2.90;90.80;;;;;;4832607;29;20042;-81
2021/12/22 11:49:24;;;;;;;47.35;24.17;;;3.10;90.50;;;;;;4833900;29;20042;-81
2021/12/22 11:51:50;;;;;;;45.03;24.58;;;3.20;90.40;;;;;;4823213;29;20106;-81
2021/12/22 11:54:16;;;;;;;45.00;24.00;;;3.30;90.30;;;;;;4820112;29;20231;-81
2021/12/22 11:56:50;;;;;;;45.53;24.60;;;3.40;89.50;;;;;;4819964;29;20295;-81
2021/12/22 11:59:30;;;;;;;53.42;24.63;;;3.50;89.20;;;;;;4820623;29;20062;-80
2021/12/22 12:02:22;;;;;;;49.10;26.15;;;3.60;89.10;;;;;;4831443;29;20035;-80
2021/12/22 12:05:18;;;;;;;46.63;24.60;;;3.60;88.60;;;;;;4836813;29;20223;-81
2021/12/22 12:07:49;;;;;;;48.33;24.17;;;3.60;87.00;;;;;;4832353;29;20035;-81
2021/12/22 12:10:39;;;;;;;44.65;24.75;;;3.50;87.90;;;;;;4848849;29;20042;-80
2021/12/22 12:13:34;;;;;;;48.85;25.70;;;3.40;88.30;;;;;;4835697;29;20052;-80
2021/12/22 12:21:56;;;;;;;54.70;25.85;;;3.30;89.80;;;;;;4833800;29;20038;-81
2021/12/22 12:24:54;;;;;;;49.60;24.90;;;3.20;89.90;;;;;;4821635;29;20396;-79
2021/12/22 12:27:47;;;;;;;50.53;26.50;;;3.30;90.00;;;;;;4834254;29;20035;-80
2021/12/22 12:30:30;;;;;;;48.10;24.77;;;3.40;90.00;;;;;;4811047;29;20039;-80
2021/12/22 12:33:02;;;;;;;48.88;25.60;;;3.40;90.20;;;;;;4825914;29;20302;-80
2021/12/22 12:35:31;;;;;;;52.60;25.63;;;3.50;89.80;;;;;;4831960;29;20035;-80
2021/12/22 12:38:16;;;;;;;54.85;27.67;;;3.40;89.50;;;;;;4820209;29;20060;-79
2021/12/22 12:40:57;;;;;;;46.90;26.30;;;3.40;89.60;;;;;;4842517;29;20121;-79
2021/12/22 12:46:24;;;;;;;42.72;24.50;;;3.30;90.30;;;;;;4829461;29;20388;-79
2021/12/22 12:48:54;;;;;;;44.58;24.30;;;3.20;89.70;;;;;;4824053;29;20251;-80
2021/12/22 12:51:33;;;;;;;47.03;24.75;;;3.20;90.10;;;;;;4812764;29;20058;-79
2021/12/22 12:54:02;;;;;;;54.55;24.27;;;3.20;90.10;;;;;;4814195;29;20125;-80
2021/12/22 12:56:34;;;;;;;45.17;24.13;;;3.20;89.80;;;;;;4822037;29;20106;-80
2021/12/22 12:59:03;;;;;;;46.75;24.42;;;3.20;89.90;;;;;;4832010;29;20038;-80
2021/12/22 13:01:47;;;;;;;46.40;24.15;;;3.00;89.50;;;;;;4832170;29;20057;-80
2021/12/22 13:04:29;;;;;;;43.83;24.10;;;2.90;90.00;;;;;;4829015;29;20034;-80
2021/12/22 13:07:01;;;;;;;40.50;22.67;;;2.90;90.00;;;;;;4823618;29;20066;-80
2021/12/22 13:09:44;;;;;;;44.35;23.15;;;2.80;89.70;;;;;;4832488;29;20034;-80
2021/12/22 13:17:35;;;;;;;46.65;25.02;;;2.60;90.10;;;;;;4820034;29;20038;-80
2021/12/22 13:20:01;;;;;;;40.15;22.45;;;2.60;90.20;;;;;;4811158;29;20109;-80
2021/12/22 13:22:30;;;;;;;40.28;20.67;;;2.60;90.10;;;;;;4816211;29;20054;-80
2021/12/22 13:25:07;;;;;;;44.40;22.00;;;2.70;90.10;;;;;;4832635;29;20061;-80
2021/12/22 13:27:33;;;;;;;42.90;22.27;;;2.70;90.20;;;;;;4825807;29;20064;-80
2021/12/22 13:30:13;;;;;;;42.92;23.23;;;2.70;90.10;;;;;;4787742;29;20081;-80
2021/12/22 13:32:58;;;;;;;38.20;20.90;;;2.70;90.30;;;;;;4834258;29;20041;-81
2021/12/22 13:35:37;;;;;;;41.80;21.73;;;2.70;90.70;;;;;;4834339;29;20034;-80
2021/12/22 13:38:07;;;;;;;37.25;20.80;;;2.70;90.80;;;;;;4831207;29;20126;-79
2021/12/22 13:40:52;;;;;;;41.50;21.95;;;2.60;90.90;;;;;;4827026;29;20034;-79
2021/12/22 13:43:40;;;;;;;35.80;20.67;;;2.60;91.00;;;;;;4829239;29;20322;-80
2021/12/22 13:46:11;;;;;;;42.08;22.02;;;2.70;91.00;;;;;;4829809;29;20142;-80
2021/12/22 13:48:41;;;;;;;39.80;21.65;;;2.60;90.90;;;;;;4818878;29;20043;-80
2021/12/22 13:51:09;;;;;;;41.90;21.63;;;2.60;90.90;;;;;;4832661;29;20070;-80
2021/12/22 13:53:38;;;;;;;42.85;24.23;;;2.60;91.00;;;;;;4821844;29;20381;-80
2021/12/22 13:56:04;;;;;;;70.97;33.28;;;2.40;91.00;;;;;;4819658;29;20046;-80
2021/12/22 13:58:31;;;;;;;44.43;23.70;;;2.40;91.30;;;;;;4820622;29;20248;-80
2021/12/22 14:01:11;;;;;;;;;;;2.40;91.30;;;;;;4828602;29;20093;-80
2021/12/22 14:03:36;;;;;;;44.72;22.70;;;2.30;91.30;;;;;;4815167;29;19940;-80
2021/12/22 14:06:07;;;;;;;37.60;20.15;;;2.30;91.50;;;;;;4806375;29;20271;-80
2021/12/22 14:08:33;;;;;;;45.25;22.77;;;2.30;91.50;;;;;;4819769;29;20621;-80
2021/12/22 14:10:59;;;;;;;38.65;20.85;;;2.30;91.50;;;;;;4816413;29;20155;-80
2021/12/22 14:13:29;;;;;;;45.88;23.05;;;2.20;91.80;;;;;;4815173;29;20283;-80
2021/12/22 14:15:56;;;;;;;47.92;24.23;;;2.20;91.60;;;;;;4830885;29;20034;-80
2021/12/22 14:18:35;;;;;;;41.92;22.27;;;2.10;91.60;;;;;;4818225;29;20046;-80
2021/12/22 14:21:01;;;;;;;44.40;23.60;;;2.10;91.80;;;;;;4826197;29;20039;-80
2021/12/22 14:23:27;;;;;;;51.90;24.83;;;2.10;91.80;;;;;;4792127;29;20330;-80
2021/12/22 14:26:06;;;;;;;53.30;25.50;;;2.00;92.10;;;;;;4825727;29;20026;-81
2021/12/22 14:28:35;;;;;;;55.95;26.40;;;2.00;92.20;;;;;;4831753;29;20259;-80
2021/12/22 14:31:07;;;;;;;50.72;26.17;;;1.90;92.20;;;;;;4817123;29;20042;-80
2021/12/22 14:33:33;;;;;;;49.30;26.33;;;1.90;92.30;;;;;;4811733;29;20382;-81
2021/12/22 14:36:08;;;;;;;57.50;26.90;;;1.90;92.50;;;;;;4815868;29;20042;-81
2021/12/22 14:38:36;;;;;;;52.90;26.45;;;1.80;92.70;;;;;;4820605;29;20302;-80
2021/12/22 14:41:11;;;;;;;49.83;26.75;;;1.70;92.90;;;;;;4810537;29;20045;-80
2021/12/22 14:43:37;;;;;;;52.30;29.05;;;1.70;93.00;;;;;;4812537;29;20143;-81
2021/12/22 14:46:04;;;;;;;58.95;28.70;;;1.70;93.10;;;;;;4824180;29;20054;-81
2021/12/22 14:48:30;;;;;;;;;;;1.60;93.20;;;;;;4819699;29;20046;-81
2021/12/22 14:51:01;;;;;;;58.83;28.45;;;1.50;93.30;;;;;;4816453;29;19912;-81
2021/12/22 14:53:30;;;;;;;55.10;28.20;;;1.50;93.50;;;;;;4819133;29;20090;-81
2021/12/22 14:55:57;;;;;;;62.30;30.38;;;1.40;93.80;;;;;;4824066;29;20863;-81
2021/12/22 14:58:24;;;;;;;68.07;30.75;;;1.30;93.80;;;;;;4819838;29;20342;-81
2021/12/22 15:00:50;;;;;;;91.32;35.67;;;1.30;93.80;;;;;;4831830;29;20042;-80
2021/12/22 15:03:18;;;;;;;75.30;33.28;;;1.30;94.10;;;;;;4823405;29;20057;-82
2021/12/22 15:05:56;;;;;;;86.90;34.78;;;1.20;94.20;;;;;;4817995;29;20070;-80
2021/12/22 15:08:23;;;;;;;85.25;36.50;;;1.10;94.30;;;;;;4822345;29;20314;-83
2021/12/22 15:10:49;;;;;;;78.40;34.53;;;1.10;94.60;;;;;;4836112;29;20054;-80
2021/12/22 15:13:15;;;;;;;75.13;33.42;;;1.10;94.70;;;;;;4836795;29;20088;-81
2021/12/22 15:15:41;;;;;;;68.03;31.67;;;1.00;94.70;;;;;;4819411;29;20034;-81
2021/12/22 15:18:07;;;;;;;66.22;31.65;;;1.00;94.90;;;;;;4820984;29;20038;-82
2021/12/22 15:20:33;;;;;;;61.97;31.02;;;0.90;95.30;;;;;;4819511;29;20107;-82
2021/12/22 15:22:59;;;;;;;71.75;31.90;;;0.90;95.20;;;;;;4805667;29;20083;-82
2021/12/22 15:25:24;;;;;;;73.25;33.80;;;0.90;95.30;;;;;;4815892;29;20116;-81
2021/12/22 15:27:50;;;;;;;61.08;30.65;;;0.90;95.10;;;;;;4831169;29;20120;-82
2021/12/22 15:30:16;;;;;;;80.40;34.65;;;0.80;95.40;;;;;;4839292;29;20087;-81
2021/12/22 15:32:42;;;;;;;85.43;36.17;;;0.80;95.30;;;;;;4836333;29;20026;-82
2021/12/22 15:35:08;;;;;;;72.57;32.53;;;0.70;95.20;;;;;;4819649;29;20280;-82
2021/12/22 15:37:34;;;;;;;66.50;32.15;;;0.70;95.20;;;;;;4826463;29;20103;-81
2021/12/22 15:40:00;;;;;;;73.25;34.60;;;0.70;95.10;;;;;;4798349;29;20093;-81
2021/12/22 15:42:26;;;;;;;70.93;33.13;;;0.60;95.00;;;;;;4813902;29;20054;-82
2021/12/22 15:44:52;;;;;;;66.53;33.88;;;0.60;95.10;;;;;;4823171;29;20046;-82
2021/12/22 15:47:20;;;;;;;73.50;32.08;;;0.50;95.20;;;;;;4834307;29;20129;-80
2021/12/22 15:49:47;;;;;;;62.42;31.35;;;0.50;95.20;;;;;;4834196;29;20113;-82
2021/12/22 15:52:13;;;;;;;65.28;34.35;;;0.50;95.20;;;;;;4818955;29;20052;-82
2021/12/22 15:54:39;;;;;;;64.22;33.08;;;0.40;95.10;;;;;;4797272;29;20035;-82
2021/12/22 15:57:06;;;;;;;60.28;31.90;;;0.30;95.50;;;;;;4785023;29;21409;-81
2021/12/22 15:59:33;;;;;;;76.10;35.00;;;0.30;95.60;;;;;;4796676;29;20045;-82
2021/12/22 16:01:58;;;;;;;73.32;34.65;;;0.30;95.70;;;;;;4794702;29;20258;-80
2021/12/22 16:04:24;;;;;;;75.43;34.72;;;0.20;96.10;;;;;;4754759;29;20046;-80
2021/12/22 16:06:50;;;;;;;83.43;35.50;;;0.20;95.60;;;;;;4755261;29;20043;-80
2021/12/22 16:09:16;;;;;;;79.68;36.28;;;0.20;95.80;;;;;;4767116;29;20266;-81
2021/12/22 16:11:42;;;;;;;63.55;32.33;;;0.20;96.00;;;;;;4767150;29;20230;-81
2021/12/22 16:14:08;;;;;;;77.63;38.53;;;0.10;95.90;;;;;;4800706;29;20291;-81
2021/12/22 16:16:34;;;;;;;91.25;41.60;;;0.10;97.20;;;;;;4783452;29;20058;-81
2021/12/22 16:19:00;;;;;;;94.30;41.88;;;0.00;97.10;;;;;;4784389;29;20062;-81
2021/12/22 16:21:26;;;;;;;95.90;43.03;;;0.00;97.30;;;;;;4786588;29;20166;-81
2021/12/22 16:23:52;;;;;;;83.03;38.45;;;0.00;97.50;;;;;;4774041;29;20272;-81
2021/12/22 16:26:19;;;;;;;84.07;39.28;;;0.00;97.30;;;;;;4770224;29;20074;-81
2021/12/22 16:28:45;;;;;;;80.32;37.88;;;0.00;97.40;;;;;;4799695;29;20046;-81
2021/12/22 16:31:12;;;;;;;83.65;36.17;;;0.00;97.50;;;;;;4800056;29;20258;-81
2021/12/22 16:33:37;;;;;;;71.63;35.95;;;-0.10;97.40;;;;;;4805195;29;20134;-81
2021/12/22 16:36:04;;;;;;;80.95;38.50;;;-0.10;97.40;;;;;;4814148;29;20034;-81
2021/12/22 16:38:29;;;;;;;76.30;36.77;;;-0.20;97.30;;;;;;4816389;29;20034;-81
2021/12/22 16:40:55;;;;;;;65.70;31.80;;;-0.20;97.70;;;;;;4812654;29;20369;-80
2021/12/22 16:43:21;;;;;;;68.40;35.60;;;-0.20;97.70;;;;;;4800418;29;20039;-81
2021/12/22 16:45:48;;;;;;;82.65;36.22;;;-0.20;97.50;;;;;;4815351;29;20238;-81
2021/12/22 16:48:13;;;;;;;63.63;31.93;;;-0.20;97.40;;;;;;4814057;29;20043;-81